Terminal Aerodrome Forecast
Issued by NWS Cleveland, OH

Home | Current Version | Previous Version | Graphics & Text | Print | Product List | Glossary On
Versions: 1 2 3 4 5 6 7 8 9 10 11 12 13 14 15 16 17 18 19 20 21 22 23 24 25 26 27 28 29 30 31 32 33 34 35
000
FTUS41 KCLE 270200 AAA
TAFCLE
TAF AMD
KCLE 270256Z 2703/2806 31006KT 5SM -SN BKN017 OVC025
      TEMPO 2703/2707 SCT017 OVC025
     FM271200 34005KT 6SM -SN OVC012
      TEMPO 2712/2715 3SM -SN BKN009 OVC012
     FM272100 34010KT P6SM OVC025
     FM280300 31005KT P6SM SCT025=

USA.gov is the U.S. government's official web portal to all federal, state and local government web resources and services.